createdAt,value
2018-06-19T00:00:01.157Z,84.12
2018-06-19T00:01:01.159Z,83.74
2018-06-19T00:02:01.168Z,83.45
2018-06-19T00:03:01.161Z,84.31
2018-06-19T00:04:01.169Z,84.12
2018-06-19T00:05:01.175Z,83.93
2018-06-19T00:06:01.171Z,84.31
2018-06-19T00:07:01.179Z,84.51
2018-06-19T00:08:01.180Z,84.80
2018-06-19T00:09:01.202Z,84.22
2018-06-19T00:10:01.191Z,84.31
2018-06-19T00:11:01.202Z,84.75
2018-06-19T00:12:01.194Z,84.75
2018-06-19T00:13:01.192Z,84.47
2018-06-19T00:14:01.201Z,85.04
2018-06-19T00:15:01.206Z,85.14
2018-06-19T00:16:01.208Z,85.04
2018-06-19T00:17:01.212Z,84.95
2018-06-19T00:18:01.220Z,85.14
2018-06-19T00:19:01.218Z,85.14
2018-06-19T00:20:01.219Z,84.85
2018-06-19T00:21:01.222Z,85.33
2018-06-19T00:22:01.226Z,84.47
2018-06-19T00:23:01.229Z,84.18
2018-06-19T00:24:01.227Z,84.47
2018-06-19T00:25:01.237Z,84.56
2018-06-19T00:26:01.232Z,84.56
2018-06-19T00:27:01.242Z,84.18
2018-06-19T00:28:01.244Z,83.89
2018-06-19T00:29:01.244Z,83.60
2018-06-19T00:30:01.250Z,84.47
2018-06-19T00:31:01.255Z,84.27
2018-06-19T00:32:01.255Z,84.47
2018-06-19T00:33:01.258Z,84.18
2018-06-19T00:34:01.263Z,84.27
2018-06-19T00:35:01.266Z,84.56
2018-06-19T00:36:01.264Z,84.27
2018-06-19T00:37:01.271Z,84.66
2018-06-19T00:38:01.272Z,84.27
2018-06-19T00:39:01.271Z,84.75
2018-06-19T00:40:01.280Z,84.61
2018-06-19T00:41:01.285Z,85.04
2018-06-19T00:42:01.285Z,85.14
2018-06-19T00:43:01.289Z,84.95
2018-06-19T00:44:01.291Z,85.00
2018-06-19T00:45:01.294Z,85.10
2018-06-19T00:46:01.291Z,84.61
2018-06-19T00:47:01.299Z,84.23
2018-06-19T00:48:01.298Z,84.04
2018-06-19T00:49:01.303Z,84.23
2018-06-19T00:50:01.310Z,84.14
2018-06-19T00:51:01.312Z,84.14
2018-06-19T00:52:01.314Z,84.04
2018-06-19T00:53:01.316Z,84.14
2018-06-19T00:54:01.321Z,83.85
2018-06-19T00:55:01.322Z,84.23
2018-06-19T00:56:01.321Z,84.14
2018-06-19T00:57:01.326Z,84.23
2018-06-19T00:58:01.330Z,84.33
2018-06-19T00:59:01.327Z,84.71
2018-06-19T01:00:01.337Z,84.52
2018-06-19T01:01:01.339Z,84.33
2018-06-19T01:02:01.343Z,84.61
2018-06-19T01:03:01.344Z,84.52
2018-06-19T01:04:01.351Z,85.00
2018-06-19T01:05:01.353Z,84.14
2018-06-19T01:06:01.345Z,83.85
2018-06-19T01:07:01.356Z,84.04
2018-06-19T01:08:01.357Z,84.14
2018-06-19T01:09:01.363Z,84.14
2018-06-19T01:10:01.366Z,84.42
2018-06-19T01:11:01.369Z,84.14
2018-06-19T01:12:01.368Z,84.42
2018-06-19T01:13:01.382Z,84.71
2018-06-19T01:14:01.374Z,84.42
2018-06-19T01:15:01.376Z,84.14
2018-06-19T01:16:01.379Z,84.23
2018-06-19T01:17:01.381Z,83.56
2018-06-19T01:18:01.386Z,84.42
2018-06-19T01:19:01.388Z,83.85
2018-06-19T01:20:01.388Z,84.14
2018-06-19T01:21:01.394Z,84.33
2018-06-19T01:22:01.397Z,84.23
2018-06-19T01:23:01.394Z,84.42
2018-06-19T01:24:01.400Z,84.14
2018-06-19T01:25:01.409Z,84.04
2018-06-19T01:26:01.409Z,83.94
2018-06-19T01:27:01.404Z,83.94
2018-06-19T01:28:01.410Z,83.75
2018-06-19T01:29:01.414Z,83.56
2018-06-19T01:30:01.415Z,84.04
2018-06-19T01:31:01.414Z,84.04
2018-06-19T01:32:01.414Z,84.14
2018-06-19T01:33:01.422Z,83.27
2018-06-19T01:34:01.426Z,84.04
2018-06-19T01:35:01.465Z,83.94
2018-06-19T01:36:01.431Z,84.00
2018-06-19T01:37:01.434Z,83.85
2018-06-19T01:38:01.459Z,83.81
2018-06-19T01:39:01.440Z,83.56
2018-06-19T01:40:01.445Z,83.94
2018-06-19T01:41:01.443Z,84.09
2018-06-19T01:42:01.446Z,84.48
2018-06-19T01:43:01.449Z,84.67
2018-06-19T01:44:01.457Z,84.86
2018-06-19T01:45:01.454Z,85.25
2018-06-19T01:46:01.456Z,84.95
2018-06-19T01:47:01.460Z,84.86
2018-06-19T01:48:01.460Z,85.05
2018-06-19T01:49:01.464Z,85.25
2018-06-19T01:50:01.467Z,85.53
2018-06-19T01:51:01.468Z,85.53
2018-06-19T01:52:01.471Z,85.63
2018-06-19T01:53:01.474Z,85.44
2018-06-19T01:54:01.479Z,85.44
2018-06-19T01:55:01.479Z,85.53
2018-06-19T01:56:01.481Z,85.72
2018-06-19T01:57:01.479Z,86.11
2018-06-19T01:58:01.484Z,85.72
2018-06-19T01:59:01.487Z,85.82
2018-06-19T02:00:01.489Z,85.82
2018-06-19T02:01:01.489Z,85.53
2018-06-19T02:02:01.495Z,85.82
2018-06-19T02:03:01.504Z,85.44
2018-06-19T02:04:01.501Z,85.53
2018-06-19T02:05:01.500Z,85.72
2018-06-19T02:06:01.511Z,85.15
2018-06-19T02:07:01.506Z,85.53
2018-06-19T02:08:01.507Z,85.82
2018-06-19T02:09:01.505Z,86.58
2018-06-19T02:10:01.513Z,86.01
2018-06-19T02:11:01.515Z,85.88
2018-06-19T02:12:01.519Z,86.35
2018-06-19T02:13:01.515Z,86.30
2018-06-19T02:14:01.523Z,86.30
2018-06-19T02:15:01.523Z,86.88
2018-06-19T02:16:01.582Z,86.21
2018-06-19T02:17:01.525Z,85.97
2018-06-19T02:18:01.526Z,86.88
2018-06-19T02:19:01.532Z,86.83
2018-06-19T02:20:01.535Z,86.45
2018-06-19T02:21:01.538Z,86.64
2018-06-19T02:22:01.542Z,86.64
2018-06-19T02:23:01.542Z,86.45
2018-06-19T02:24:01.544Z,86.64
2018-06-19T02:25:01.549Z,86.16
2018-06-19T02:26:01.599Z,86.54
2018-06-19T02:27:01.551Z,86.35
2018-06-19T02:28:01.558Z,86.25
2018-06-19T02:29:01.557Z,86.45
2018-06-19T02:30:01.553Z,86.16
2018-06-19T02:31:01.561Z,86.30
2018-06-19T02:32:01.563Z,86.40
2018-06-19T02:33:01.565Z,86.21
2018-06-19T02:34:01.563Z,86.58
2018-06-19T02:35:01.572Z,86.58
2018-06-19T02:36:01.572Z,86.40
2018-06-19T02:37:01.575Z,86.30
2018-06-19T02:38:01.580Z,86.01
2018-06-19T02:39:01.578Z,86.01
2018-06-19T02:40:01.580Z,86.30
2018-06-19T02:41:01.582Z,86.49
2018-06-19T02:42:01.586Z,86.01
2018-06-19T02:43:01.590Z,86.21
2018-06-19T02:44:01.588Z,86.21
2018-06-19T02:45:01.595Z,85.92
2018-06-19T02:46:01.600Z,85.92
2018-06-19T02:47:01.598Z,85.53
2018-06-19T02:48:01.600Z,85.72
2018-06-19T02:49:01.605Z,85.25
2018-06-19T02:50:01.604Z,85.63
2018-06-19T02:51:01.607Z,84.86
2018-06-19T02:52:01.607Z,85.05
2018-06-19T02:53:01.608Z,84.58
2018-06-19T02:54:01.615Z,84.23
2018-06-19T02:55:01.616Z,84.33
2018-06-19T02:56:01.617Z,84.33
2018-06-19T02:57:01.623Z,83.85
2018-06-19T02:58:01.623Z,83.75
2018-06-19T02:59:01.626Z,84.14
2018-06-19T03:00:01.629Z,84.23
2018-06-19T03:01:01.630Z,83.85
2018-06-19T03:02:01.636Z,83.52
2018-06-19T03:03:01.636Z,83.94
2018-06-19T03:04:01.637Z,84.04
2018-06-19T03:05:01.641Z,83.56
2018-06-19T03:06:01.644Z,83.56
2018-06-19T03:07:01.648Z,83.65
2018-06-19T03:08:01.641Z,84.04
2018-06-19T03:09:01.649Z,83.85
2018-06-19T03:10:01.653Z,83.85
2018-06-19T03:11:01.655Z,84.14
2018-06-19T03:12:01.659Z,83.27
2018-06-19T03:13:01.659Z,83.75
2018-06-19T03:14:01.666Z,83.37
2018-06-19T03:15:01.668Z,83.75
2018-06-19T03:16:01.670Z,83.27
2018-06-19T03:17:01.670Z,83.27
2018-06-19T03:18:01.676Z,83.37
2018-06-19T03:19:01.673Z,83.27
2018-06-19T03:20:01.681Z,83.56
2018-06-19T03:21:01.682Z,82.98
2018-06-19T03:22:01.686Z,82.89
2018-06-19T03:23:01.688Z,83.75
2018-06-19T03:24:01.693Z,83.47
2018-06-19T03:25:01.690Z,82.98
2018-06-19T03:26:01.699Z,83.37
2018-06-19T03:27:01.699Z,83.47
2018-06-19T03:28:01.704Z,82.89
2018-06-19T03:29:01.698Z,82.98
2018-06-19T03:30:01.711Z,82.51
2018-06-19T03:31:01.708Z,83.37
2018-06-19T03:32:01.716Z,82.51
2018-06-19T03:33:01.720Z,82.60
2018-06-19T03:34:01.721Z,82.89
2018-06-19T03:35:01.723Z,82.79
2018-06-19T03:36:01.730Z,82.70
2018-06-19T03:37:01.728Z,82.51
2018-06-19T03:38:01.731Z,82.79
2018-06-19T03:39:01.734Z,82.60
2018-06-19T03:40:01.735Z,82.51
2018-06-19T03:41:01.739Z,82.70
2018-06-19T03:42:01.742Z,82.41
2018-06-19T03:43:01.746Z,82.74
2018-06-19T03:44:01.747Z,82.41
2018-06-19T03:45:01.751Z,82.54
2018-06-19T03:46:01.752Z,82.16
2018-06-19T03:47:01.759Z,81.87
2018-06-19T03:48:01.758Z,82.26
2018-06-19T03:49:01.763Z,82.12
2018-06-19T03:50:01.764Z,82.35
2018-06-19T03:51:01.768Z,82.07
2018-06-19T03:52:01.771Z,82.16
2018-06-19T03:53:01.779Z,82.26
2018-06-19T03:54:01.769Z,82.16
2018-06-19T03:55:01.785Z,82.26
2018-06-19T03:56:01.783Z,82.26
2018-06-19T03:57:01.785Z,82.35
2018-06-19T03:58:01.788Z,82.45
2018-06-19T03:59:01.791Z,82.07
2018-06-19T04:00:01.796Z,82.54
2018-06-19T04:01:01.799Z,82.26
2018-06-19T04:02:01.799Z,82.35
2018-06-19T04:03:01.807Z,82.16
2018-06-19T04:04:01.806Z,81.78
2018-06-19T04:05:01.809Z,81.78
2018-06-19T04:06:01.805Z,81.68
2018-06-19T04:07:01.815Z,81.49
2018-06-19T04:08:01.819Z,81.49
2018-06-19T04:09:01.820Z,81.15
2018-06-19T04:10:01.826Z,81.24
2018-06-19T04:11:01.825Z,81.05
2018-06-19T04:12:01.832Z,80.96
2018-06-19T04:13:01.834Z,80.66
2018-06-19T04:14:01.838Z,80.57
2018-06-19T04:15:01.842Z,80.28
2018-06-19T04:16:01.843Z,80.66
2018-06-19T04:17:01.847Z,80.96
2018-06-19T04:18:01.851Z,80.57
2018-06-19T04:19:01.856Z,80.19
2018-06-19T04:20:01.856Z,80.19
2018-06-19T04:21:01.861Z,80.28
2018-06-19T04:22:01.868Z,80.04
2018-06-19T04:23:01.868Z,80.09
2018-06-19T04:24:01.863Z,79.99
2018-06-19T04:25:01.872Z,80.04
2018-06-19T04:26:01.875Z,79.80
2018-06-19T04:27:01.877Z,79.65
2018-06-19T04:28:01.883Z,79.55
2018-06-19T04:29:01.888Z,79.55
2018-06-19T04:30:01.893Z,79.65
2018-06-19T04:31:01.889Z,79.36
2018-06-19T04:32:01.900Z,79.07
2018-06-19T04:33:01.903Z,79.17
2018-06-19T04:34:01.906Z,79.17
2018-06-19T04:35:01.919Z,79.27
2018-06-19T04:36:01.913Z,79.07
2018-06-19T04:37:01.917Z,79.27
2018-06-19T04:38:01.922Z,79.36
2018-06-19T04:39:01.930Z,78.98
2018-06-19T04:40:01.934Z,78.98
2018-06-19T04:41:01.936Z,78.88
2018-06-19T04:42:01.963Z,79.27
2018-06-19T04:43:01.952Z,79.02
2018-06-19T04:44:01.951Z,79.27
2018-06-19T04:45:01.948Z,79.02
2018-06-19T04:46:01.952Z,79.11
2018-06-19T04:47:01.961Z,79.02
2018-06-19T04:48:01.957Z,79.02
2018-06-19T04:49:01.963Z,78.63
2018-06-19T04:50:01.968Z,78.53
2018-06-19T04:51:01.972Z,78.44
2018-06-19T04:52:01.976Z,78.25
2018-06-19T04:53:01.977Z,78.06
2018-06-19T04:54:01.983Z,77.71
2018-06-19T04:55:01.983Z,78.00
2018-06-19T04:56:01.989Z,77.96
2018-06-19T04:57:01.993Z,77.67
2018-06-19T04:58:02.001Z,77.81
2018-06-19T04:59:02.003Z,77.71
2018-06-19T05:00:02.011Z,77.71
2018-06-19T05:01:02.011Z,77.81
2018-06-19T05:02:02.017Z,77.51
2018-06-19T05:03:02.018Z,77.42
2018-06-19T05:04:02.028Z,77.61
2018-06-19T05:05:02.030Z,77.71
2018-06-19T05:06:02.038Z,77.71
2018-06-19T05:07:02.036Z,77.51
2018-06-19T05:08:02.041Z,77.42
2018-06-19T05:09:02.044Z,77.42
2018-06-19T05:10:02.045Z,77.51
2018-06-19T05:11:02.057Z,77.81
2018-06-19T05:12:02.058Z,77.51
2018-06-19T05:13:02.074Z,77.71
2018-06-19T05:14:02.069Z,77.08
2018-06-19T05:15:02.074Z,76.94
2018-06-19T05:16:02.075Z,77.42
2018-06-19T05:17:02.082Z,77.04
2018-06-19T05:18:02.086Z,76.88
2018-06-19T05:19:02.089Z,77.08
2018-06-19T05:20:02.093Z,77.08
2018-06-19T05:21:02.092Z,77.36
2018-06-19T05:22:02.104Z,77.08
2018-06-19T05:23:02.107Z,76.69
2018-06-19T05:24:02.107Z,76.88
2018-06-19T05:25:02.115Z,76.88
2018-06-19T05:26:02.120Z,76.40
2018-06-19T05:27:02.125Z,76.69
2018-06-19T05:28:02.129Z,76.88
2018-06-19T05:29:02.135Z,76.88
2018-06-19T05:30:02.135Z,76.59
2018-06-19T05:31:02.140Z,76.21
2018-06-19T05:32:02.144Z,76.50
2018-06-19T05:33:02.153Z,76.53
2018-06-19T05:34:02.157Z,76.34
2018-06-19T05:35:02.210Z,76.34
2018-06-19T05:36:02.172Z,76.53
2018-06-19T05:37:02.172Z,75.86
2018-06-19T05:38:02.177Z,75.86
2018-06-19T05:39:02.182Z,75.86
2018-06-19T05:40:02.192Z,75.86
2018-06-19T05:41:02.192Z,75.76
2018-06-19T05:42:02.197Z,75.28
2018-06-19T05:43:02.201Z,75.86
2018-06-19T05:44:02.217Z,75.96
2018-06-19T05:45:02.206Z,75.09
2018-06-19T05:46:02.216Z,75.09
2018-06-19T05:47:02.218Z,75.19
2018-06-19T05:48:02.226Z,74.99
2018-06-19T05:49:02.231Z,74.90
2018-06-19T05:50:02.231Z,74.80
2018-06-19T05:51:02.243Z,74.32
2018-06-19T05:52:02.248Z,74.80
2018-06-19T05:53:02.253Z,74.41
2018-06-19T05:54:02.265Z,75.19
2018-06-19T05:55:02.262Z,74.71
2018-06-19T05:56:02.266Z,74.71
2018-06-19T05:57:02.269Z,74.80
2018-06-19T05:58:02.279Z,74.61
2018-06-19T05:59:02.281Z,74.32
2018-06-19T06:00:02.312Z,75.19
2018-06-19T06:01:02.291Z,74.71
2018-06-19T06:02:02.300Z,75.38
2018-06-19T06:03:02.299Z,74.71
2018-06-19T06:04:02.305Z,74.99
2018-06-19T06:05:02.314Z,74.93
2018-06-19T06:06:02.318Z,74.65
2018-06-19T06:07:02.326Z,74.45
2018-06-19T06:08:02.329Z,73.78
2018-06-19T06:09:02.329Z,74.36
2018-06-19T06:10:02.342Z,74.36
2018-06-19T06:11:02.349Z,74.26
2018-06-19T06:12:02.351Z,74.84
2018-06-19T06:13:02.362Z,74.16
2018-06-19T06:14:02.362Z,74.26
2018-06-19T06:15:02.370Z,74.55
2018-06-19T06:16:02.368Z,74.20
2018-06-19T06:17:02.377Z,73.72
2018-06-19T06:18:02.388Z,73.91
2018-06-19T06:19:02.390Z,73.82
2018-06-19T06:20:02.400Z,73.24
2018-06-19T06:21:02.401Z,73.43
2018-06-19T06:22:02.517Z,73.43
2018-06-19T06:23:02.412Z,73.24
2018-06-19T06:24:02.418Z,74.01
2018-06-19T06:25:02.424Z,74.10
2018-06-19T06:26:02.437Z,74.01
2018-06-19T06:27:02.436Z,73.72
2018-06-19T06:28:02.440Z,74.01
2018-06-19T06:29:02.448Z,74.10
2018-06-19T06:30:02.458Z,74.49
2018-06-19T06:31:02.461Z,74.49
2018-06-19T06:32:02.464Z,74.01
2018-06-19T06:33:02.465Z,73.91
2018-06-19T06:34:02.475Z,73.82
2018-06-19T06:35:02.482Z,73.91
2018-06-19T06:36:02.490Z,74.49
2018-06-19T06:37:02.529Z,74.30
2018-06-19T06:38:02.500Z,74.84
2018-06-19T06:39:02.506Z,74.65
2018-06-19T06:40:02.514Z,75.13
2018-06-19T06:41:02.521Z,75.42
2018-06-19T06:42:02.523Z,75.90
2018-06-19T06:43:02.530Z,76.34
2018-06-19T06:44:02.533Z,76.82
2018-06-19T06:45:02.540Z,76.82
2018-06-19T06:46:02.545Z,76.82
2018-06-19T06:47:02.554Z,76.82
2018-06-19T06:48:02.564Z,76.63
2018-06-19T06:49:02.562Z,77.06
2018-06-19T06:50:02.568Z,76.96
2018-06-19T06:51:02.574Z,76.18
2018-06-19T06:52:02.582Z,75.99
2018-06-19T06:53:02.587Z,76.28
2018-06-19T06:54:02.591Z,75.51
2018-06-19T06:55:02.596Z,75.80
2018-06-19T06:56:02.602Z,75.61
2018-06-19T06:57:02.606Z,75.80
2018-06-19T06:58:02.612Z,75.90
2018-06-19T06:59:02.619Z,75.42
2018-06-19T07:00:02.625Z,75.71
2018-06-19T07:01:02.632Z,76.48
2018-06-19T07:02:02.634Z,76.96
2018-06-19T07:03:02.641Z,76.82
2018-06-19T07:04:02.642Z,76.92
2018-06-19T07:05:02.653Z,76.73
2018-06-19T07:06:02.655Z,77.06
2018-06-19T07:07:02.663Z,77.06
2018-06-19T07:08:02.668Z,76.86
2018-06-19T07:09:02.672Z,76.96
2018-06-19T07:10:02.783Z,77.06
2018-06-19T07:11:02.678Z,76.96
2018-06-19T07:12:02.697Z,76.76
2018-06-19T07:13:02.687Z,76.48
2018-06-19T07:14:02.695Z,77.40
2018-06-19T07:15:02.704Z,77.88
2018-06-19T07:16:02.709Z,77.69
2018-06-19T07:17:02.712Z,77.50
2018-06-19T07:18:02.712Z,77.69
2018-06-19T07:19:02.767Z,78.17
2018-06-19T07:20:02.723Z,77.78
2018-06-19T07:21:02.731Z,77.25
2018-06-19T07:22:02.733Z,77.44
2018-06-19T07:23:02.740Z,77.53
2018-06-19T07:24:02.744Z,77.44
2018-06-19T07:25:02.743Z,76.76
2018-06-19T07:26:02.773Z,76.96
2018-06-19T07:27:02.769Z,77.00
2018-06-19T07:28:02.768Z,76.09
2018-06-19T07:29:02.782Z,76.86
2018-06-19T07:30:02.787Z,76.86
2018-06-19T07:31:02.789Z,77.06
2018-06-19T07:32:02.828Z,76.86
2018-06-19T07:33:02.803Z,76.86
2018-06-19T07:34:02.807Z,76.48
2018-06-19T07:35:02.810Z,76.90
2018-06-19T07:36:02.821Z,76.42
2018-06-19T07:37:02.822Z,76.42
2018-06-19T07:38:02.837Z,76.03
2018-06-19T07:39:02.835Z,75.65
2018-06-19T07:40:02.838Z,76.03
2018-06-19T07:41:02.844Z,76.23
2018-06-19T07:42:02.851Z,76.03
2018-06-19T07:43:02.856Z,76.03
2018-06-19T07:44:02.923Z,75.93
2018-06-19T07:45:02.868Z,75.26
2018-06-19T07:46:02.875Z,75.40
2018-06-19T07:47:02.881Z,74.82
2018-06-19T07:48:02.886Z,74.72
2018-06-19T07:49:02.892Z,75.01
2018-06-19T07:50:02.897Z,74.33
2018-06-19T07:51:02.904Z,74.57
2018-06-19T07:52:02.909Z,74.08
2018-06-19T07:53:02.914Z,73.60
2018-06-19T07:54:02.918Z,73.41
2018-06-19T07:55:02.930Z,73.69
2018-06-19T07:56:02.936Z,73.11
2018-06-19T07:57:02.940Z,72.83
2018-06-19T07:58:02.941Z,73.50
2018-06-19T07:59:02.952Z,73.02
2018-06-19T08:00:02.961Z,73.31
2018-06-19T08:01:02.960Z,73.47
2018-06-19T08:02:02.975Z,73.99
2018-06-19T08:03:02.979Z,74.27
2018-06-19T08:04:02.994Z,73.79
2018-06-19T08:05:02.992Z,73.02
2018-06-19T08:06:02.997Z,73.15
2018-06-19T08:07:03.004Z,73.06
2018-06-19T08:08:03.011Z,72.96
2018-06-19T08:09:03.018Z,72.28
2018-06-19T08:10:03.030Z,71.74
2018-06-19T08:11:03.032Z,71.26
2018-06-19T08:12:03.031Z,71.26
2018-06-19T08:13:03.045Z,71.06
2018-06-19T08:14:03.051Z,71.06
2018-06-19T08:15:03.053Z,71.16
2018-06-19T08:16:03.064Z,71.06
2018-06-19T08:17:03.075Z,70.78
2018-06-19T08:18:03.079Z,70.97
2018-06-19T08:19:03.087Z,70.68
2018-06-19T08:20:03.092Z,70.39
2018-06-19T08:21:03.101Z,69.81
2018-06-19T08:22:03.105Z,70.04
2018-06-19T08:23:03.112Z,69.46
2018-06-19T08:24:03.122Z,69.74
2018-06-19T08:25:03.128Z,69.56
2018-06-19T08:26:03.135Z,69.84
2018-06-19T08:27:03.144Z,69.94
2018-06-19T08:28:03.150Z,69.65
2018-06-19T08:29:03.161Z,69.46
2018-06-19T08:30:03.237Z,69.56
2018-06-19T08:31:03.171Z,69.94
2018-06-19T08:32:03.178Z,70.42
2018-06-19T08:33:03.182Z,70.68
2018-06-19T08:34:03.194Z,70.68
2018-06-19T08:35:03.201Z,70.78
2018-06-19T08:36:03.207Z,71.16
2018-06-19T08:37:03.214Z,70.87
2018-06-19T08:38:03.223Z,70.10
2018-06-19T08:39:03.230Z,70.10
2018-06-19T08:40:03.230Z,70.29
2018-06-19T08:41:03.240Z,70.20
2018-06-19T08:42:03.251Z,71.06
2018-06-19T08:43:03.257Z,70.72
2018-06-19T08:44:03.269Z,69.46
2018-06-19T08:45:03.272Z,69.36
2018-06-19T08:46:03.282Z,69.30
2018-06-19T08:47:03.291Z,68.33
2018-06-19T08:48:03.306Z,67.85
2018-06-19T08:49:03.303Z,67.98
2018-06-19T08:50:03.310Z,68.17
2018-06-19T08:51:03.318Z,67.08
2018-06-19T08:52:03.328Z,67.85
2018-06-19T08:53:03.332Z,67.75
2018-06-19T08:54:03.340Z,68.33
2018-06-19T08:55:03.349Z,68.14
2018-06-19T08:56:03.357Z,68.33
2018-06-19T08:57:03.365Z,68.43
2018-06-19T08:58:03.371Z,68.62
2018-06-19T08:59:03.380Z,68.82
2018-06-19T09:00:03.386Z,68.91
2018-06-19T09:01:03.388Z,68.49
2018-06-19T09:02:03.403Z,68.78
2018-06-19T09:03:03.405Z,68.72
2018-06-19T09:04:03.410Z,68.91
2018-06-19T09:05:03.425Z,68.82
2018-06-19T09:06:03.433Z,68.43
2018-06-19T09:07:03.441Z,68.04
2018-06-19T09:08:03.448Z,68.04
2018-06-19T09:09:03.453Z,67.56
2018-06-19T09:10:03.462Z,67.91
2018-06-19T09:11:03.471Z,68.98
2018-06-19T09:12:03.479Z,68.88
2018-06-19T09:13:03.486Z,68.98
2018-06-19T09:14:03.496Z,69.07
2018-06-19T09:15:03.503Z,69.56
2018-06-19T09:16:03.504Z,69.17
2018-06-19T09:17:03.517Z,69.94
2018-06-19T09:18:03.523Z,69.94
2018-06-19T09:19:03.532Z,69.94
2018-06-19T09:20:03.596Z,69.84
2018-06-19T09:21:03.545Z,69.56
2018-06-19T09:22:03.552Z,69.59
2018-06-19T09:23:03.554Z,69.01
2018-06-19T09:24:03.567Z,68.52
2018-06-19T09:25:03.576Z,68.04
2018-06-19T09:26:03.600Z,68.04
2018-06-19T09:27:03.589Z,68.33
2018-06-19T09:28:03.595Z,68.33
2018-06-19T09:29:03.607Z,68.82
2018-06-19T09:30:03.613Z,68.91
2018-06-19T09:31:03.621Z,68.59
2018-06-19T09:32:03.628Z,69.26
2018-06-19T09:33:03.634Z,68.68
2018-06-19T09:34:03.651Z,68.88
2018-06-19T09:35:03.651Z,68.88
2018-06-19T09:36:03.658Z,69.30
2018-06-19T09:37:03.664Z,68.14
2018-06-19T09:38:03.673Z,68.14
2018-06-19T09:39:03.685Z,67.56
2018-06-19T09:40:03.684Z,67.94
2018-06-19T09:41:03.697Z,67.56
2018-06-19T09:42:03.711Z,66.63
2018-06-19T09:43:03.714Z,66.53
2018-06-19T09:44:03.720Z,66.24
2018-06-19T09:45:03.725Z,66.82
2018-06-19T09:46:03.734Z,65.75
2018-06-19T09:47:03.750Z,66.59
2018-06-19T09:48:03.749Z,66.88
2018-06-19T09:49:03.758Z,66.50
2018-06-19T09:50:03.765Z,67.08
2018-06-19T09:51:03.772Z,67.94
2018-06-19T09:52:03.778Z,68.33
2018-06-19T09:53:03.788Z,68.30
2018-06-19T09:54:03.797Z,68.98
2018-06-19T09:55:03.808Z,68.75
2018-06-19T09:56:03.812Z,69.71
2018-06-19T09:57:03.817Z,69.62
2018-06-19T09:58:03.826Z,70.29
2018-06-19T09:59:03.845Z,69.04
2018-06-19T10:00:03.838Z,69.52
2018-06-19T10:01:03.849Z,69.81
2018-06-19T10:02:03.849Z,69.52
2018-06-19T10:03:03.860Z,69.81
2018-06-19T10:04:03.867Z,69.90
2018-06-19T10:05:03.876Z,69.36
2018-06-19T10:06:03.883Z,69.74
2018-06-19T10:07:03.888Z,69.07
2018-06-19T10:08:03.897Z,68.59
2018-06-19T10:09:03.903Z,68.68
2018-06-19T10:10:03.912Z,68.78
2018-06-19T10:11:03.920Z,68.49
2018-06-19T10:12:03.951Z,69.74
2018-06-19T10:13:03.933Z,69.84
2018-06-19T10:14:03.940Z,69.84
2018-06-19T10:15:03.942Z,69.56
2018-06-19T10:16:03.954Z,69.74
2018-06-19T10:17:03.959Z,69.46
2018-06-19T10:18:03.970Z,68.68
2018-06-19T10:19:03.977Z,68.72
2018-06-19T10:20:03.986Z,68.14
2018-06-19T10:21:03.991Z,67.85
2018-06-19T10:22:03.998Z,67.46
2018-06-19T10:23:04.007Z,65.92
2018-06-19T10:24:04.004Z,65.63
2018-06-19T10:25:04.017Z,65.92
2018-06-19T10:26:04.024Z,66.91
2018-06-19T10:27:04.032Z,66.14
2018-06-19T10:28:04.034Z,65.08
2018-06-19T10:29:04.048Z,65.01
2018-06-19T10:30:04.053Z,63.85
2018-06-19T10:31:04.064Z,64.43
2018-06-19T10:32:04.065Z,63.69
2018-06-19T10:33:04.076Z,62.92
2018-06-19T10:34:04.077Z,63.11
2018-06-19T10:35:04.197Z,63.11
2018-06-19T10:36:04.103Z,63.31
2018-06-19T10:37:04.107Z,63.40
2018-06-19T10:38:04.111Z,63.21
2018-06-19T10:39:04.119Z,62.72
2018-06-19T10:40:04.125Z,62.43
2018-06-19T10:41:04.138Z,62.85
2018-06-19T10:42:04.145Z,62.17
2018-06-19T10:43:04.153Z,61.59
2018-06-19T10:44:04.164Z,61.88
2018-06-19T10:45:04.165Z,61.88
2018-06-19T10:46:04.179Z,61.21
2018-06-19T10:47:04.187Z,61.40
2018-06-19T10:48:04.198Z,60.33
2018-06-19T10:49:04.205Z,61.30
2018-06-19T10:50:04.213Z,60.11
2018-06-19T10:51:04.222Z,60.40
2018-06-19T10:52:04.228Z,60.14
2018-06-19T10:53:04.237Z,60.14
2018-06-19T10:54:04.244Z,60.43
2018-06-19T10:55:04.255Z,60.33
2018-06-19T10:56:04.266Z,59.66
2018-06-19T10:57:04.270Z,59.69
2018-06-19T10:58:04.277Z,59.49
2018-06-19T10:59:04.334Z,59.78
2018-06-19T11:00:04.297Z,59.94
2018-06-19T11:01:04.304Z,59.84
2018-06-19T11:02:04.316Z,60.24
2018-06-19T11:03:04.321Z,60.33
2018-06-19T11:04:04.329Z,60.24
2018-06-19T11:05:04.390Z,59.66
2018-06-19T11:06:04.405Z,60.30
2018-06-19T11:07:04.355Z,60.37
2018-06-19T11:08:04.362Z,61.33
2018-06-19T11:09:04.378Z,61.92
2018-06-19T11:10:04.382Z,62.08
2018-06-19T11:11:04.394Z,61.79
2018-06-19T11:12:04.400Z,62.37
2018-06-19T11:13:04.400Z,63.05
2018-06-19T11:14:04.419Z,62.85
2018-06-19T11:15:04.421Z,62.37
2018-06-19T11:16:04.432Z,63.05
2018-06-19T11:17:04.437Z,62.66
2018-06-19T11:18:04.448Z,62.37
2018-06-19T11:19:04.449Z,62.66
2018-06-19T11:20:04.478Z,63.43
2018-06-19T11:21:04.466Z,62.95
2018-06-19T11:22:04.476Z,63.14
2018-06-19T11:23:04.482Z,63.92
2018-06-19T11:24:04.633Z,63.34
2018-06-19T11:25:04.503Z,63.82
2018-06-19T11:26:04.508Z,63.73
2018-06-19T11:27:04.515Z,62.95
2018-06-19T11:28:04.520Z,63.73
2018-06-19T11:29:04.619Z,63.92
2018-06-19T11:30:04.537Z,63.08
2018-06-19T11:31:04.544Z,62.79
2018-06-19T11:32:04.554Z,63.08
2018-06-19T11:33:04.599Z,62.04
2018-06-19T11:34:04.568Z,60.88
2018-06-19T11:35:04.572Z,60.98
2018-06-19T11:36:04.582Z,61.18
2018-06-19T11:37:04.591Z,60.91
2018-06-19T11:38:04.591Z,60.52
2018-06-19T11:39:04.606Z,60.14
2018-06-19T11:40:04.613Z,59.75
2018-06-19T11:41:04.621Z,59.56
2018-06-19T11:42:04.630Z,59.00
2018-06-19T11:43:04.637Z,59.78
2018-06-19T11:44:04.646Z,59.49
2018-06-19T11:45:04.648Z,58.62
2018-06-19T11:46:04.666Z,58.72
2018-06-19T11:47:04.671Z,58.33
2018-06-19T11:48:04.678Z,58.81
2018-06-19T11:49:04.697Z,57.94
2018-06-19T11:50:04.689Z,58.23
2018-06-19T11:51:04.703Z,58.59
2018-06-19T11:52:04.714Z,58.59
2018-06-19T11:53:04.715Z,59.75
2018-06-19T11:54:04.730Z,58.98
2018-06-19T11:55:04.739Z,59.10
2018-06-19T11:56:04.743Z,58.91
2018-06-19T11:57:04.756Z,59.20
2018-06-19T11:58:04.761Z,59.10
2018-06-19T11:59:04.776Z,58.62
2018-06-19T12:00:04.776Z,58.59
2018-06-19T12:01:04.791Z,58.30
2018-06-19T12:02:04.798Z,59.05
2018-06-19T12:03:04.808Z,59.53
2018-06-19T12:04:04.817Z,59.43
2018-06-19T12:05:04.819Z,59.43
2018-06-19T12:06:04.829Z,59.89
2018-06-19T12:07:04.842Z,60.57
2018-06-19T12:08:04.849Z,60.78
2018-06-19T12:09:04.859Z,60.59
2018-06-19T12:10:04.864Z,60.82
2018-06-19T12:11:04.875Z,60.43
2018-06-19T12:12:04.880Z,60.62
2018-06-19T12:13:04.897Z,60.04
2018-06-19T12:14:04.895Z,59.66
2018-06-19T12:15:04.909Z,59.27
2018-06-19T12:16:04.912Z,59.20
2018-06-19T12:17:04.927Z,59.39
2018-06-19T12:18:04.929Z,59.10
2018-06-19T12:19:04.940Z,58.52
2018-06-19T12:20:04.947Z,59.00
2018-06-19T12:21:04.957Z,58.72
2018-06-19T12:22:04.964Z,58.55
2018-06-19T12:23:04.973Z,58.74
2018-06-19T12:24:05.020Z,58.65
2018-06-19T12:25:04.989Z,58.36
2018-06-19T12:26:04.998Z,58.65
2018-06-19T12:27:05.007Z,57.97
2018-06-19T12:28:05.018Z,58.16
2018-06-19T12:29:05.026Z,58.39
2018-06-19T12:30:05.037Z,57.42
2018-06-19T12:31:05.040Z,57.61
2018-06-19T12:32:05.054Z,57.70
2018-06-19T12:33:05.059Z,57.22
2018-06-19T12:34:05.065Z,57.61
2018-06-19T12:35:05.084Z,57.12
2018-06-19T12:36:05.086Z,57.42
2018-06-19T12:37:05.097Z,57.22
2018-06-19T12:38:05.103Z,57.22
2018-06-19T12:39:05.114Z,57.42
2018-06-19T12:40:05.121Z,57.03
2018-06-19T12:41:05.133Z,56.74
2018-06-19T12:42:05.142Z,56.32
2018-06-19T12:43:05.152Z,55.93
2018-06-19T12:44:05.159Z,56.23
2018-06-19T12:45:05.167Z,56.83
2018-06-19T12:46:05.179Z,56.23
2018-06-19T12:47:05.190Z,56.25
2018-06-19T12:48:05.195Z,55.64
2018-06-19T12:49:05.205Z,56.25
2018-06-19T12:50:05.213Z,56.05
2018-06-19T12:51:05.229Z,56.25
2018-06-19T12:52:05.233Z,56.05